This is the latest recevied weather packets stored in our database for station/object VE7PRT-1. If no packets are shown the sender has not sent any weather packets the latest 10 day(s).
| Time | Temp. | Humidity | Pressure | Rain* | Wind** | Luminosity | Snow |
|---|---|---|---|---|---|---|---|
| 1777885919 | 11.67° C | 94% | 1009.4 hPa | 0 mm | - | - | - |
| 1777885174 | 11.67° C | 94% | 1009.4 hPa | 0 mm | - | - | - |
| 1777883635 | 12.22° C | 94% | 1009.4 hPa | 0 mm | - | - | - |
| 1777882919 | 12.22° C | 94% | 1009.4 hPa | 0 mm | - | - | - |
| 1777882188 | 12.22° C | 94% | 1009.4 hPa | 0 mm | - | - | - |
| 1777881407 | 12.22° C | 93% | 1009.5 hPa | 0 mm | - | - | - |
| 1777880639 | 12.78° C | 93% | 1009.6 hPa | 0 mm | - | - | - |
| 1777879804 | 12.78° C | 93% | 1009.6 hPa | 0 mm | - | - | - |
| 1777878904 | 12.78° C | 92% | 1009.5 hPa | 0 mm | - | - | - |
| 1777878159 | 13.33° C | 92% | 1009.5 hPa | 0 mm | - | - | - |
| 1777877319 | 13.33° C | 91% | 1009.3 hPa | 0 mm | - | - | - |
| 1777876439 | 13.33° C | 91% | 1009.3 hPa | 0 mm | - | - | - |
| 1777875549 | 13.89° C | 90% | 1009.3 hPa | 0 mm | - | - | - |
| 1777874794 | 13.89° C | 89% | 1009.4 hPa | 0 mm | - | - | - |
| 1777873919 | 14.44° C | 88% | 1009.4 hPa | 0 mm | - | - | - |
| 1777873079 | 14.44° C | 86% | 1009.7 hPa | 0 mm | - | - | - |
| 1777872354 | 14.44° C | 85% | 1009.7 hPa | 0 mm | - | - | - |
| 1777871544 | 15° C | 84% | 1009.8 hPa | 0 mm | - | - | - |
| 1777870659 | 15.56° C | 82% | 1009.8 hPa | 0 mm | - | - | - |
| 1777869784 | 16.11° C | 81% | 1009.8 hPa | 0 mm | - | - | - |
| 1777868927 | 16.67° C | 79% | 1009.8 hPa | 0 mm | - | - | - |
| 1777868119 | 17.22° C | 76% | 1009.8 hPa | 0 mm | - | - | - |
| 1777867307 | 17.78° C | 75% | 1009.8 hPa | 0 mm | - | - | - |
| 1777866557 | 19.44° C | 65% | 1009.7 hPa | 0 mm | - | - | - |
| 1777845379 | 24.44° C | 47% | 1012.9 hPa | 0 mm | - | - | - |
* Rain latest hour (hover to see other rain measurements)
** Current wind speed in m/s (hover to see current wind gust speed)